createdAt,value
2019-02-24T00:00:37.298Z,22.14
2019-02-24T00:01:37.292Z,22.10
2019-02-24T00:02:37.274Z,22.08
2019-02-24T00:03:37.263Z,22.08
2019-02-24T00:04:37.251Z,22.10
2019-02-24T00:05:37.342Z,22.22
2019-02-24T00:06:37.232Z,22.12
2019-02-24T00:07:37.228Z,22.08
2019-02-24T00:08:37.215Z,22.07
2019-02-24T00:09:37.198Z,22.16
2019-02-24T00:10:37.187Z,22.04
2019-02-24T00:11:37.462Z,22.06
2019-02-24T00:12:37.170Z,22.15
2019-02-24T00:13:37.169Z,22.14
2019-02-24T00:14:37.142Z,22.19
2019-02-24T00:15:37.132Z,22.18
2019-02-24T00:16:37.123Z,22.12
2019-02-24T00:17:37.213Z,22.07
2019-02-24T00:18:37.099Z,22.10
2019-02-24T00:19:37.133Z,22.16
2019-02-24T00:20:37.076Z,22.21
2019-02-24T00:21:37.064Z,22.15
2019-02-24T00:22:37.055Z,22.15
2019-02-24T00:23:37.193Z,22.16
2019-02-24T00:24:37.033Z,22.12
2019-02-24T00:25:37.032Z,22.08
2019-02-24T00:26:37.012Z,22.06
2019-02-24T00:27:37.002Z,22.10
2019-02-24T00:28:36.988Z,22.12
2019-02-24T00:29:37.228Z,22.07
2019-02-24T00:30:36.968Z,22.01
2019-02-24T00:31:36.964Z,21.97
2019-02-24T00:32:36.970Z,22.14
2019-02-24T00:33:36.933Z,22.08
2019-02-24T00:34:36.924Z,22.06
2019-02-24T00:35:37.014Z,22.06
2019-02-24T00:36:36.904Z,22.10
2019-02-24T00:37:36.891Z,22.06
2019-02-24T00:38:36.911Z,22.00
2019-02-24T00:39:36.866Z,22.08
2019-02-24T00:40:36.856Z,22.08
2019-02-24T00:41:37.079Z,22.07
2019-02-24T00:42:36.835Z,22.07
2019-02-24T00:43:36.844Z,22.04
2019-02-24T00:44:36.812Z,22.04
2019-02-24T00:45:36.801Z,22.03
2019-02-24T00:46:36.792Z,22.04
2019-02-24T00:47:37.051Z,22.07
2019-02-24T00:48:36.774Z,21.94
2019-02-24T00:49:36.766Z,22.00
2019-02-24T00:50:36.759Z,21.94
2019-02-24T00:51:36.735Z,22.00
2019-02-24T00:52:36.726Z,22.03
2019-02-24T00:53:36.826Z,22.01
2019-02-24T00:54:36.707Z,21.99
2019-02-24T00:55:36.691Z,22.08
2019-02-24T00:56:36.685Z,21.97
2019-02-24T00:57:36.668Z,21.94
2019-02-24T00:58:36.659Z,22.01
2019-02-24T00:59:36.754Z,21.92
2019-02-24T01:00:36.635Z,21.97
2019-02-24T01:01:36.625Z,21.99
2019-02-24T01:02:36.613Z,21.89
2019-02-24T01:03:36.603Z,21.88
2019-02-24T01:04:36.595Z,21.91
2019-02-24T01:05:36.679Z,21.91
2019-02-24T01:06:36.571Z,21.91
2019-02-24T01:07:36.559Z,21.84
2019-02-24T01:08:36.547Z,21.92
2019-02-24T01:09:36.536Z,21.94
2019-02-24T01:10:36.529Z,21.88
2019-02-24T01:11:36.627Z,21.94
2019-02-24T01:12:36.508Z,21.89
2019-02-24T01:13:36.495Z,21.85
2019-02-24T01:14:36.484Z,21.91
2019-02-24T01:15:36.469Z,21.81
2019-02-24T01:16:36.461Z,21.85
2019-02-24T01:17:36.547Z,21.83
2019-02-24T01:18:36.440Z,21.89
2019-02-24T01:19:36.427Z,21.81
2019-02-24T01:20:36.415Z,21.83
2019-02-24T01:21:36.405Z,21.80
2019-02-24T01:22:36.394Z,21.81
2019-02-24T01:23:36.627Z,21.80
2019-02-24T01:24:36.371Z,21.81
2019-02-24T01:25:36.372Z,21.81
2019-02-24T01:26:36.352Z,21.80
2019-02-24T01:27:36.381Z,21.81
2019-02-24T01:28:36.326Z,21.75
2019-02-24T01:29:36.419Z,21.77
2019-02-24T01:30:36.315Z,21.69
2019-02-24T01:31:36.298Z,21.84
2019-02-24T01:32:36.284Z,21.81
2019-02-24T01:33:36.272Z,21.75
2019-02-24T01:34:36.262Z,21.68
2019-02-24T01:35:36.357Z,21.68
2019-02-24T01:36:36.243Z,21.74
2019-02-24T01:37:36.229Z,21.68
2019-02-24T01:38:36.217Z,21.72
2019-02-24T01:39:36.206Z,21.70
2019-02-24T01:40:36.200Z,21.72
2019-02-24T01:41:36.280Z,21.69
2019-02-24T01:42:36.178Z,21.74
2019-02-24T01:43:36.164Z,21.70
2019-02-24T01:44:36.153Z,21.75
2019-02-24T01:45:36.152Z,21.72
2019-02-24T01:46:36.134Z,21.70
2019-02-24T01:47:36.224Z,21.72
2019-02-24T01:48:36.109Z,21.75
2019-02-24T01:49:36.098Z,21.70
2019-02-24T01:50:36.087Z,21.70
2019-02-24T01:51:36.075Z,21.74
2019-02-24T01:52:36.065Z,21.69
2019-02-24T01:53:36.240Z,21.68
2019-02-24T01:54:36.047Z,21.65
2019-02-24T01:55:36.030Z,21.58
2019-02-24T01:56:36.019Z,21.69
2019-02-24T01:57:36.009Z,21.60
2019-02-24T01:58:36.002Z,21.66
2019-02-24T01:59:36.264Z,21.60
2019-02-24T02:00:36.046Z,21.65
2019-02-24T02:01:35.965Z,21.63
2019-02-24T02:02:35.954Z,21.59
2019-02-24T02:03:35.945Z,21.59
2019-02-24T02:04:35.935Z,21.69
2019-02-24T02:05:36.016Z,21.66
2019-02-24T02:06:35.944Z,21.59
2019-02-24T02:07:35.901Z,21.62
2019-02-24T02:08:35.891Z,21.62
2019-02-24T02:09:35.877Z,21.72
2019-02-24T02:10:35.869Z,21.62
2019-02-24T02:11:35.952Z,21.62
2019-02-24T02:12:35.846Z,21.59
2019-02-24T02:13:35.834Z,21.59
2019-02-24T02:14:35.825Z,21.56
2019-02-24T02:15:35.817Z,21.65
2019-02-24T02:16:35.803Z,21.62
2019-02-24T02:17:35.961Z,21.58
2019-02-24T02:18:35.779Z,21.65
2019-02-24T02:19:35.769Z,21.59
2019-02-24T02:20:35.775Z,21.59
2019-02-24T02:21:35.751Z,21.58
2019-02-24T02:22:35.741Z,21.56
2019-02-24T02:23:35.829Z,21.60
2019-02-24T02:24:35.715Z,21.63
2019-02-24T02:25:35.702Z,21.53
2019-02-24T02:26:35.692Z,21.54
2019-02-24T02:27:35.682Z,21.56
2019-02-24T02:28:43.589Z,21.54
2019-02-24T02:29:36.764Z,21.53
2019-02-24T02:30:35.650Z,21.45
2019-02-24T02:31:35.638Z,21.54
2019-02-24T02:32:35.627Z,21.54
2019-02-24T02:33:35.615Z,21.54
2019-02-24T02:34:35.617Z,21.54
2019-02-24T02:35:35.698Z,21.44
2019-02-24T02:36:35.583Z,21.59
2019-02-24T02:37:35.588Z,21.45
2019-02-24T02:38:35.562Z,21.44
2019-02-24T02:39:35.553Z,21.45
2019-02-24T02:40:35.541Z,21.48
2019-02-24T02:41:35.633Z,21.48
2019-02-24T02:42:35.517Z,21.53
2019-02-24T02:43:35.510Z,21.41
2019-02-24T02:44:35.496Z,21.40
2019-02-24T02:45:35.485Z,21.47
2019-02-24T02:46:35.482Z,21.45
2019-02-24T02:47:35.564Z,21.48
2019-02-24T02:48:35.452Z,21.44
2019-02-24T02:49:35.443Z,21.43
2019-02-24T02:50:35.429Z,21.44
2019-02-24T02:51:35.419Z,21.44
2019-02-24T02:52:35.409Z,21.40
2019-02-24T02:53:35.683Z,21.33
2019-02-24T02:54:35.389Z,21.47
2019-02-24T02:55:35.378Z,21.43
2019-02-24T02:56:35.372Z,21.30
2019-02-24T02:57:35.356Z,21.48
2019-02-24T02:58:35.345Z,21.33
2019-02-24T02:59:35.428Z,21.32
2019-02-24T03:00:35.328Z,21.37
2019-02-24T03:01:35.309Z,21.33
2019-02-24T03:02:35.300Z,21.40
2019-02-24T03:03:35.291Z,21.30
2019-02-24T03:04:35.283Z,21.37
2019-02-24T03:05:35.374Z,21.48
2019-02-24T03:06:35.255Z,21.41
2019-02-24T03:07:35.250Z,21.41
2019-02-24T03:08:35.234Z,21.37
2019-02-24T03:09:35.225Z,21.32
2019-02-24T03:10:35.210Z,21.38
2019-02-24T03:11:35.483Z,21.44
2019-02-24T03:12:35.188Z,21.35
2019-02-24T03:13:35.177Z,21.40
2019-02-24T03:14:35.171Z,21.35
2019-02-24T03:15:35.160Z,21.32
2019-02-24T03:16:35.155Z,21.29
2019-02-24T03:17:35.237Z,21.35
2019-02-24T03:18:35.125Z,21.41
2019-02-24T03:19:35.111Z,21.33
2019-02-24T03:20:35.104Z,21.38
2019-02-24T03:21:35.088Z,21.33
2019-02-24T03:22:35.078Z,21.37
2019-02-24T03:23:35.181Z,21.38
2019-02-24T03:24:35.062Z,21.38
2019-02-24T03:25:35.046Z,21.37
2019-02-24T03:26:35.066Z,21.38
2019-02-24T03:27:35.024Z,21.38
2019-02-24T03:28:35.012Z,21.43
2019-02-24T03:29:35.203Z,21.43
2019-02-24T03:30:34.998Z,21.38
2019-02-24T03:31:34.978Z,21.43
2019-02-24T03:32:34.971Z,21.35
2019-02-24T03:33:34.963Z,21.35
2019-02-24T03:34:34.947Z,21.33
2019-02-24T03:35:35.029Z,21.32
2019-02-24T03:36:34.925Z,21.33
2019-02-24T03:37:34.912Z,21.32
2019-02-24T03:38:34.906Z,21.32
2019-02-24T03:39:34.891Z,21.41
2019-02-24T03:40:34.885Z,21.32
2019-02-24T03:41:34.969Z,21.37
2019-02-24T03:42:34.854Z,21.29
2019-02-24T03:43:34.847Z,21.33
2019-02-24T03:44:34.834Z,21.32
2019-02-24T03:45:34.828Z,21.35
2019-02-24T03:46:34.815Z,21.26
2019-02-24T03:47:35.128Z,21.33
2019-02-24T03:48:34.791Z,21.25
2019-02-24T03:49:34.785Z,21.35
2019-02-24T03:50:34.770Z,21.32
2019-02-24T03:51:34.758Z,21.30
2019-02-24T03:52:34.755Z,21.37
2019-02-24T03:53:34.843Z,21.32
2019-02-24T03:54:34.728Z,21.30
2019-02-24T03:55:34.715Z,21.29
2019-02-24T03:56:34.703Z,21.30
2019-02-24T03:57:34.693Z,21.33
2019-02-24T03:58:34.688Z,21.33
2019-02-24T03:59:34.781Z,21.35
2019-02-24T04:00:34.661Z,21.29
2019-02-24T04:01:34.653Z,21.28
2019-02-24T04:02:34.638Z,21.43
2019-02-24T04:03:34.629Z,21.33
2019-02-24T04:04:34.636Z,21.30
2019-02-24T04:05:34.782Z,21.29
2019-02-24T04:06:34.597Z,21.28
2019-02-24T04:07:34.582Z,21.33
2019-02-24T04:08:34.572Z,21.32
2019-02-24T04:09:34.575Z,21.32
2019-02-24T04:10:34.552Z,21.32
2019-02-24T04:11:34.655Z,21.35
2019-02-24T04:12:34.531Z,21.28
2019-02-24T04:13:34.517Z,21.29
2019-02-24T04:14:34.507Z,21.30
2019-02-24T04:15:34.497Z,21.30
2019-02-24T04:16:34.483Z,21.28
2019-02-24T04:17:34.579Z,21.32
2019-02-24T04:18:34.472Z,21.30
2019-02-24T04:19:34.451Z,21.33
2019-02-24T04:20:34.445Z,21.32
2019-02-24T04:21:34.436Z,21.33
2019-02-24T04:22:34.417Z,21.35
2019-02-24T04:23:34.586Z,21.37
2019-02-24T04:24:34.395Z,21.30
2019-02-24T04:25:34.383Z,21.41
2019-02-24T04:26:34.376Z,21.32
2019-02-24T04:27:34.369Z,21.33
2019-02-24T04:28:34.353Z,21.33
2019-02-24T04:29:34.437Z,21.30
2019-02-24T04:30:34.344Z,21.41
2019-02-24T04:31:34.931Z,21.35
2019-02-24T04:32:34.319Z,21.40
2019-02-24T04:33:34.301Z,21.32
2019-02-24T04:34:34.288Z,21.37
2019-02-24T04:35:34.378Z,21.41
2019-02-24T04:36:34.265Z,21.40
2019-02-24T04:37:34.252Z,21.43
2019-02-24T04:38:34.244Z,21.35
2019-02-24T04:39:34.232Z,21.33
2019-02-24T04:40:34.221Z,21.37
2019-02-24T04:41:34.383Z,21.35
2019-02-24T04:42:34.205Z,21.33
2019-02-24T04:43:34.198Z,21.45
2019-02-24T04:44:34.183Z,21.35
2019-02-24T04:45:34.166Z,21.35
2019-02-24T04:46:34.155Z,21.40
2019-02-24T04:47:34.239Z,21.38
2019-02-24T04:48:34.138Z,21.37
2019-02-24T04:49:34.122Z,21.38
2019-02-24T04:50:34.114Z,21.37
2019-02-24T04:51:34.100Z,21.38
2019-02-24T04:52:34.090Z,21.37
2019-02-24T04:53:34.176Z,21.29
2019-02-24T04:54:34.066Z,21.40
2019-02-24T04:55:34.062Z,21.29
2019-02-24T04:56:34.051Z,21.37
2019-02-24T04:57:34.035Z,21.38
2019-02-24T04:58:34.030Z,21.32
2019-02-24T04:59:35.229Z,21.37
2019-02-24T05:00:34.006Z,21.38
2019-02-24T05:01:33.990Z,21.32
2019-02-24T05:02:33.981Z,21.40
2019-02-24T05:03:33.970Z,21.37
2019-02-24T05:04:33.960Z,21.37
2019-02-24T05:05:34.058Z,21.37
2019-02-24T05:06:33.939Z,21.38
2019-02-24T05:07:33.928Z,21.38
2019-02-24T05:08:33.915Z,21.35
2019-02-24T05:09:33.909Z,21.37
2019-02-24T05:10:33.895Z,21.40
2019-02-24T05:11:33.992Z,21.35
2019-02-24T05:12:33.877Z,21.38
2019-02-24T05:13:33.863Z,21.38
2019-02-24T05:14:33.851Z,21.37
2019-02-24T05:15:33.840Z,21.43
2019-02-24T05:16:33.830Z,21.37
2019-02-24T05:17:34.099Z,21.40
2019-02-24T05:18:33.809Z,21.41
2019-02-24T05:19:33.797Z,21.37
2019-02-24T05:20:33.809Z,21.33
2019-02-24T05:21:33.777Z,21.41
2019-02-24T05:22:33.762Z,21.43
2019-02-24T05:23:33.862Z,21.33
2019-02-24T05:24:33.742Z,21.47
2019-02-24T05:25:33.730Z,21.38
2019-02-24T05:26:33.722Z,21.45
2019-02-24T05:27:33.708Z,21.44
2019-02-24T05:28:33.698Z,21.40
2019-02-24T05:29:33.794Z,21.41
2019-02-24T05:30:33.683Z,21.44
2019-02-24T05:31:33.680Z,21.43
2019-02-24T05:32:33.659Z,21.44
2019-02-24T05:33:33.652Z,21.45
2019-02-24T05:34:33.632Z,21.48
2019-02-24T05:35:33.794Z,21.45
2019-02-24T05:36:33.611Z,21.50
2019-02-24T05:37:33.618Z,21.45
2019-02-24T05:38:33.593Z,21.51
2019-02-24T05:39:33.578Z,21.59
2019-02-24T05:40:33.570Z,21.62
2019-02-24T05:41:33.656Z,21.59
2019-02-24T05:42:33.545Z,21.59
2019-02-24T05:43:33.533Z,21.54
2019-02-24T05:44:33.523Z,21.66
2019-02-24T05:45:33.523Z,21.62
2019-02-24T05:46:33.503Z,21.65
2019-02-24T05:47:33.600Z,21.68
2019-02-24T05:48:33.744Z,21.69
2019-02-24T05:49:33.469Z,21.74
2019-02-24T05:50:33.470Z,21.81
2019-02-24T05:51:33.449Z,21.72
2019-02-24T05:52:33.438Z,21.78
2019-02-24T05:53:33.701Z,21.80
2019-02-24T05:54:33.419Z,21.77
2019-02-24T05:55:33.400Z,21.83
2019-02-24T05:56:33.430Z,21.88
2019-02-24T05:57:33.388Z,21.84
2019-02-24T05:58:33.368Z,21.84
2019-02-24T05:59:33.464Z,21.84
2019-02-24T06:00:33.347Z,21.84
2019-02-24T06:01:33.336Z,21.84
2019-02-24T06:02:33.346Z,21.89
2019-02-24T06:03:33.314Z,21.96
2019-02-24T06:04:33.305Z,21.89
2019-02-24T06:05:33.393Z,21.83
2019-02-24T06:06:33.281Z,21.96
2019-02-24T06:07:33.365Z,21.92
2019-02-24T06:08:33.264Z,21.92
2019-02-24T06:09:33.249Z,21.96
2019-02-24T06:10:33.236Z,21.97
2019-02-24T06:11:33.410Z,21.94
2019-02-24T06:12:33.215Z,21.92
2019-02-24T06:13:33.207Z,21.99
2019-02-24T06:14:33.192Z,22.01
2019-02-24T06:15:33.183Z,21.99
2019-02-24T06:16:33.182Z,21.97
2019-02-24T06:17:33.264Z,22.06
2019-02-24T06:18:33.149Z,21.96
2019-02-24T06:19:33.143Z,22.03
2019-02-24T06:20:33.128Z,22.04
2019-02-24T06:21:33.119Z,22.04
2019-02-24T06:22:33.112Z,22.04
2019-02-24T06:23:33.194Z,22.03
2019-02-24T06:24:33.087Z,22.06
2019-02-24T06:25:33.079Z,22.07
2019-02-24T06:26:33.066Z,22.06
2019-02-24T06:27:33.055Z,22.08
2019-02-24T06:28:33.043Z,22.08
2019-02-24T06:29:33.139Z,22.07
2019-02-24T06:30:33.024Z,22.04
2019-02-24T06:31:33.010Z,22.07
2019-02-24T06:32:32.999Z,22.01
2019-02-24T06:33:32.989Z,22.12
2019-02-24T06:34:32.976Z,22.12
2019-02-24T06:35:33.070Z,22.06
2019-02-24T06:36:32.954Z,22.12
2019-02-24T06:37:32.995Z,22.03
2019-02-24T06:38:32.934Z,22.16
2019-02-24T06:39:32.921Z,22.08
2019-02-24T06:40:32.913Z,22.06
2019-02-24T06:41:32.994Z,22.08
2019-02-24T06:42:32.889Z,22.06
2019-02-24T06:43:32.878Z,22.08
2019-02-24T06:44:32.868Z,22.15
2019-02-24T06:45:32.860Z,22.15
2019-02-24T06:46:32.848Z,22.08
2019-02-24T06:47:33.015Z,22.10
2019-02-24T06:48:32.827Z,22.14
2019-02-24T06:49:32.818Z,22.21
2019-02-24T06:50:35.465Z,22.18
2019-02-24T06:51:32.797Z,22.19
2019-02-24T06:52:32.786Z,22.26
2019-02-24T06:53:32.884Z,22.23
2019-02-24T06:54:32.759Z,22.22
2019-02-24T06:55:32.748Z,22.28
2019-02-24T06:56:32.737Z,22.23
2019-02-24T06:57:32.729Z,22.19
2019-02-24T06:58:32.716Z,22.23
2019-02-24T06:59:32.877Z,22.16
2019-02-24T07:00:32.694Z,22.19
2019-02-24T07:01:32.684Z,22.21
2019-02-24T07:02:32.672Z,22.18
2019-02-24T07:03:32.663Z,22.22
2019-02-24T07:04:32.651Z,22.25
2019-02-24T07:05:32.747Z,22.28
2019-02-24T07:06:32.630Z,22.19
2019-02-24T07:07:32.627Z,22.25
2019-02-24T07:08:32.611Z,22.28
2019-02-24T07:09:32.596Z,22.23
2019-02-24T07:10:32.585Z,22.25
2019-02-24T07:11:32.669Z,22.23
2019-02-24T07:12:32.564Z,22.23
2019-02-24T07:13:32.550Z,22.23
2019-02-24T07:14:32.540Z,22.22
2019-02-24T07:15:32.530Z,22.28
2019-02-24T07:16:32.523Z,22.23
2019-02-24T07:17:32.710Z,22.30
2019-02-24T07:18:32.500Z,22.30
2019-02-24T07:19:32.486Z,22.36
2019-02-24T07:20:32.476Z,22.34
2019-02-24T07:21:32.465Z,22.36
2019-02-24T07:22:32.453Z,22.40
2019-02-24T07:23:32.715Z,22.33
2019-02-24T07:24:32.430Z,22.40
2019-02-24T07:25:32.419Z,22.37
2019-02-24T07:26:32.411Z,22.37
2019-02-24T07:27:32.398Z,22.34
2019-02-24T07:28:32.388Z,22.41
2019-02-24T07:29:32.501Z,22.37
2019-02-24T07:30:32.375Z,22.34
2019-02-24T07:31:32.941Z,22.37
2019-02-24T07:32:32.348Z,22.46
2019-02-24T07:33:32.340Z,22.34
2019-02-24T07:34:32.331Z,22.37
2019-02-24T07:35:32.825Z,22.43
2019-02-24T07:36:32.940Z,22.41
2019-02-24T07:37:32.312Z,22.37
2019-02-24T07:38:32.285Z,22.41
2019-02-24T07:39:32.272Z,22.40
2019-02-24T07:40:32.268Z,22.46
2019-02-24T07:41:32.475Z,22.43
2019-02-24T07:42:32.238Z,22.44
2019-02-24T07:43:32.234Z,22.43
2019-02-24T07:44:32.215Z,22.37
2019-02-24T07:45:32.208Z,22.43
2019-02-24T07:46:32.208Z,22.40
2019-02-24T07:47:32.287Z,22.40
2019-02-24T07:48:32.178Z,22.47
2019-02-24T07:49:32.174Z,22.49
2019-02-24T07:50:32.151Z,22.40
2019-02-24T07:51:32.140Z,22.41
2019-02-24T07:52:32.160Z,22.51
2019-02-24T07:53:32.412Z,22.55
2019-02-24T07:54:32.106Z,22.51
2019-02-24T07:55:32.102Z,22.49
2019-02-24T07:56:32.089Z,22.53
2019-02-24T07:57:32.076Z,22.46
2019-02-24T07:58:32.946Z,22.53
2019-02-24T07:59:32.176Z,22.59
2019-02-24T08:00:32.667Z,22.52
2019-02-24T08:01:32.033Z,22.58
2019-02-24T08:02:32.019Z,22.59
2019-02-24T08:03:32.007Z,22.56
2019-02-24T08:04:32.002Z,22.56
2019-02-24T08:05:32.272Z,22.62
2019-02-24T08:06:31.976Z,22.63
2019-02-24T08:07:31.968Z,22.70
2019-02-24T08:08:31.981Z,22.70
2019-02-24T08:09:31.948Z,22.67
2019-02-24T08:10:31.940Z,22.56
2019-02-24T08:11:32.109Z,22.74
2019-02-24T08:12:31.911Z,22.68
2019-02-24T08:13:31.907Z,22.73
2019-02-24T08:14:31.888Z,22.65
2019-02-24T08:15:31.878Z,22.73
2019-02-24T08:16:31.867Z,22.73
2019-02-24T08:17:31.954Z,22.77
2019-02-24T08:18:31.843Z,22.74
2019-02-24T08:19:31.846Z,22.65
2019-02-24T08:20:33.407Z,22.77
2019-02-24T08:21:31.815Z,22.71
2019-02-24T08:22:31.804Z,22.76
2019-02-24T08:23:32.022Z,22.81
2019-02-24T08:24:31.787Z,22.78
2019-02-24T08:25:31.769Z,22.76
2019-02-24T08:26:31.762Z,22.78
2019-02-24T08:27:31.751Z,22.78
2019-02-24T08:28:31.788Z,22.86
2019-02-24T08:29:31.822Z,22.76
2019-02-24T08:30:31.717Z,22.80
2019-02-24T08:31:31.736Z,22.73
2019-02-24T08:32:31.691Z,22.77
2019-02-24T08:33:31.680Z,22.71
2019-02-24T08:34:31.670Z,22.88
2019-02-24T08:35:31.983Z,22.84
2019-02-24T08:36:31.661Z,22.77
2019-02-24T08:37:31.642Z,22.76
2019-02-24T08:38:31.626Z,22.80
2019-02-24T08:39:31.617Z,22.83
2019-02-24T08:40:31.607Z,22.89
2019-02-24T08:41:31.772Z,22.83
2019-02-24T08:42:31.583Z,22.83
2019-02-24T08:43:31.581Z,22.78
2019-02-24T08:44:31.580Z,22.89
2019-02-24T08:45:31.553Z,22.80
2019-02-24T08:46:31.567Z,22.83
2019-02-24T08:47:31.635Z,22.84
2019-02-24T08:48:31.519Z,22.78
2019-02-24T08:49:31.511Z,22.80
2019-02-24T08:50:31.497Z,22.84
2019-02-24T08:51:31.485Z,22.84
2019-02-24T08:52:31.476Z,22.84
2019-02-24T08:53:31.571Z,22.84
2019-02-24T08:54:31.454Z,22.88
2019-02-24T08:55:31.444Z,22.84
2019-02-24T08:56:31.436Z,22.88
2019-02-24T08:57:31.420Z,22.92
2019-02-24T08:58:31.410Z,22.92
2019-02-24T08:59:31.724Z,22.86
2019-02-24T09:00:31.389Z,22.83
2019-02-24T09:01:31.383Z,22.96
2019-02-24T09:02:31.376Z,22.89
2019-02-24T09:03:31.382Z,22.98
2019-02-24T09:04:31.400Z,22.95
2019-02-24T09:05:31.434Z,22.91
2019-02-24T09:06:31.325Z,22.95
2019-02-24T09:07:31.317Z,22.93
2019-02-24T09:08:31.352Z,23.01
2019-02-24T09:09:31.291Z,22.93
2019-02-24T09:10:31.287Z,22.88
2019-02-24T09:11:31.366Z,22.95
2019-02-24T09:12:31.258Z,22.98
2019-02-24T09:13:31.250Z,23.02
2019-02-24T09:14:31.235Z,22.96
2019-02-24T09:15:31.230Z,23.04
2019-02-24T09:16:31.216Z,22.96
2019-02-24T09:17:31.315Z,22.98
2019-02-24T09:18:31.194Z,22.93
2019-02-24T09:19:31.188Z,22.98
2019-02-24T09:20:31.173Z,23.02
2019-02-24T09:21:31.177Z,22.98
2019-02-24T09:22:31.158Z,22.93
2019-02-24T09:23:31.363Z,22.98
2019-02-24T09:24:31.129Z,22.99
2019-02-24T09:25:31.130Z,22.99
2019-02-24T09:26:31.107Z,22.95
2019-02-24T09:27:31.096Z,23.01
2019-02-24T09:28:31.087Z,23.04
2019-02-24T09:29:31.223Z,23.10
2019-02-24T09:30:31.064Z,23.01
2019-02-24T09:31:31.054Z,23.06
2019-02-24T09:32:31.041Z,23.02
2019-02-24T09:33:31.031Z,23.06
2019-02-24T09:34:31.024Z,23.02
2019-02-24T09:35:31.148Z,23.02
2019-02-24T09:36:31.000Z,23.07
2019-02-24T09:37:30.992Z,23.11
2019-02-24T09:38:30.975Z,23.01
2019-02-24T09:39:30.968Z,22.96
2019-02-24T09:40:30.955Z,22.96
2019-02-24T09:41:31.039Z,23.11
2019-02-24T09:42:30.933Z,23.11
2019-02-24T09:43:30.925Z,23.14
2019-02-24T09:44:30.911Z,23.14
2019-02-24T09:45:30.902Z,23.13
2019-02-24T09:46:30.890Z,23.20
2019-02-24T09:47:30.976Z,23.11
2019-02-24T09:48:30.866Z,23.17
2019-02-24T09:49:30.862Z,23.08
2019-02-24T09:50:30.844Z,23.16
2019-02-24T09:51:30.845Z,23.18
2019-02-24T09:52:30.824Z,23.14
2019-02-24T09:53:31.004Z,23.17
2019-02-24T09:54:30.801Z,23.14
2019-02-24T09:55:30.791Z,23.11
2019-02-24T09:56:30.781Z,23.18
2019-02-24T09:57:30.771Z,23.13
2019-02-24T09:58:30.777Z,23.20
2019-02-24T09:59:30.969Z,23.17
2019-02-24T10:00:30.737Z,23.14
2019-02-24T10:01:30.733Z,23.13
2019-02-24T10:02:30.713Z,23.18
2019-02-24T10:03:30.705Z,23.16
2019-02-24T10:04:30.693Z,23.13
2019-02-24T10:05:30.780Z,23.11
2019-02-24T10:06:30.672Z,23.17
2019-02-24T10:07:30.663Z,23.13
2019-02-24T10:08:30.648Z,23.06
2019-02-24T10:09:30.638Z,23.25
2019-02-24T10:10:30.627Z,23.17
2019-02-24T10:11:30.714Z,23.21
2019-02-24T10:12:30.605Z,23.13
2019-02-24T10:13:30.613Z,23.26
2019-02-24T10:14:30.589Z,23.14
2019-02-24T10:15:30.581Z,23.23
2019-02-24T10:16:30.565Z,23.26
2019-02-24T10:17:30.954Z,23.23
2019-02-24T10:18:30.540Z,23.32
2019-02-24T10:19:31.244Z,23.32
2019-02-24T10:20:30.520Z,23.32
2019-02-24T10:21:30.507Z,23.26
2019-02-24T10:22:30.498Z,23.26
2019-02-24T10:23:30.585Z,23.29
2019-02-24T10:24:30.479Z,23.33
2019-02-24T10:25:30.479Z,23.36
2019-02-24T10:26:30.456Z,23.34
2019-02-24T10:27:30.446Z,23.26
2019-02-24T10:28:30.433Z,23.42
2019-02-24T10:29:30.542Z,23.34
2019-02-24T10:30:30.413Z,23.34
2019-02-24T10:31:30.405Z,23.34
2019-02-24T10:32:30.396Z,23.36
2019-02-24T10:33:30.389Z,23.32
2019-02-24T10:34:30.380Z,23.33
2019-02-24T10:35:30.762Z,23.34
2019-02-24T10:36:30.355Z,23.40
2019-02-24T10:37:30.355Z,23.32
2019-02-24T10:38:30.328Z,23.39
2019-02-24T10:39:30.314Z,23.37
2019-02-24T10:40:30.305Z,23.44
2019-02-24T10:41:30.402Z,23.40
2019-02-24T10:42:30.307Z,23.29
2019-02-24T10:43:30.276Z,23.39
2019-02-24T10:44:30.261Z,23.34
2019-02-24T10:45:30.256Z,23.28
2019-02-24T10:46:30.266Z,23.32
2019-02-24T10:47:30.495Z,23.29
2019-02-24T10:48:30.220Z,23.34
2019-02-24T10:49:30.212Z,23.33
2019-02-24T10:50:30.198Z,23.32
2019-02-24T10:51:30.185Z,23.29
2019-02-24T10:52:30.789Z,23.28
2019-02-24T10:53:30.444Z,23.33
2019-02-24T10:54:30.156Z,23.33
2019-02-24T10:55:30.150Z,23.37
2019-02-24T10:56:30.155Z,23.29
2019-02-24T10:57:30.119Z,23.33
2019-02-24T10:58:34.624Z,23.33
2019-02-24T10:59:31.201Z,23.26
2019-02-24T11:00:30.085Z,23.37
2019-02-24T11:01:30.121Z,23.36
2019-02-24T11:02:30.070Z,23.25
2019-02-24T11:03:30.059Z,23.16
2019-02-24T11:04:30.048Z,23.25
2019-02-24T11:05:30.141Z,23.20
2019-02-24T11:06:30.023Z,23.21
2019-02-24T11:07:30.015Z,23.14
2019-02-24T11:08:30.001Z,23.26
2019-02-24T11:09:29.994Z,23.20
2019-02-24T11:10:29.977Z,23.28
2019-02-24T11:11:30.157Z,23.25
2019-02-24T11:12:29.956Z,23.28
2019-02-24T11:13:29.945Z,23.40
2019-02-24T11:14:29.942Z,23.39
2019-02-24T11:15:29.937Z,23.47
2019-02-24T11:16:29.927Z,23.48
2019-02-24T11:17:30.009Z,23.48
2019-02-24T11:18:29.890Z,23.49
2019-02-24T11:19:29.882Z,23.58
2019-02-24T11:20:29.870Z,23.52
2019-02-24T11:21:29.858Z,23.56
2019-02-24T11:22:29.846Z,23.62
2019-02-24T11:23:29.944Z,23.63
2019-02-24T11:24:29.828Z,23.69
2019-02-24T11:25:29.814Z,23.66
2019-02-24T11:26:29.805Z,23.69
2019-02-24T11:27:29.793Z,23.66
2019-02-24T11:28:29.782Z,23.66
2019-02-24T11:29:30.080Z,23.71
2019-02-24T11:30:29.767Z,23.79
2019-02-24T11:31:38.010Z,23.77
2019-02-24T11:32:30.737Z,23.76
2019-02-24T11:33:29.726Z,23.77
2019-02-24T11:34:29.783Z,23.77
2019-02-24T11:35:29.934Z,23.92
2019-02-24T11:36:29.695Z,23.86
2019-02-24T11:37:29.682Z,23.95
2019-02-24T11:38:29.676Z,23.94
2019-02-24T11:39:29.663Z,23.95
2019-02-24T11:40:29.652Z,23.96
2019-02-24T11:41:29.737Z,23.95
2019-02-24T11:42:29.633Z,23.86
2019-02-24T11:43:29.618Z,23.96
2019-02-24T11:44:29.608Z,23.91
2019-02-24T11:45:29.598Z,23.96
2019-02-24T11:46:29.587Z,23.99
2019-02-24T11:47:29.862Z,23.96
2019-02-24T11:48:29.566Z,23.95
2019-02-24T11:49:29.552Z,23.99
2019-02-24T11:50:29.540Z,24.00
2019-02-24T11:51:29.532Z,23.96
2019-02-24T11:52:29.518Z,23.96
2019-02-24T11:53:29.655Z,24.09
2019-02-24T11:54:29.497Z,24.07
2019-02-24T11:55:29.488Z,24.09
2019-02-24T11:56:29.477Z,24.10
2019-02-24T11:57:29.464Z,24.04
2019-02-24T11:58:29.455Z,24.16
2019-02-24T11:59:29.586Z,24.14
2019-02-24T12:00:29.435Z,24.21
2019-02-24T12:01:29.423Z,24.11
2019-02-24T12:02:34.447Z,24.18
2019-02-24T12:03:30.398Z,24.24
2019-02-24T12:04:29.416Z,24.22
2019-02-24T12:05:29.479Z,24.32
2019-02-24T12:06:29.367Z,24.31
2019-02-24T12:07:29.354Z,24.34
2019-02-24T12:08:29.343Z,24.38
2019-02-24T12:09:29.330Z,24.36
2019-02-24T12:10:29.323Z,24.40
2019-02-24T12:11:29.495Z,24.38
2019-02-24T12:12:29.301Z,24.36
2019-02-24T12:13:29.288Z,24.43
2019-02-24T12:14:29.329Z,24.46
2019-02-24T12:15:29.264Z,24.46
2019-02-24T12:16:29.262Z,24.50
2019-02-24T12:17:29.362Z,24.55
2019-02-24T12:18:29.235Z,24.53
2019-02-24T12:19:29.220Z,24.48
2019-02-24T12:20:29.211Z,24.50
2019-02-24T12:21:29.198Z,24.61
2019-02-24T12:22:29.189Z,24.61
2019-02-24T12:23:29.291Z,24.59
2019-02-24T12:24:29.168Z,24.62
2019-02-24T12:25:29.156Z,24.63
2019-02-24T12:26:29.143Z,24.61
2019-02-24T12:27:29.137Z,24.68
2019-02-24T12:28:29.128Z,24.69
2019-02-24T12:29:29.395Z,24.66
2019-02-24T12:30:29.102Z,24.71
2019-02-24T12:31:29.093Z,24.65
2019-02-24T12:32:29.078Z,24.77
2019-02-24T12:33:29.069Z,24.78
2019-02-24T12:34:29.061Z,24.82
2019-02-24T12:35:29.153Z,24.82
2019-02-24T12:36:29.035Z,24.78
2019-02-24T12:37:29.025Z,24.82
2019-02-24T12:38:29.014Z,24.89
2019-02-24T12:39:29.002Z,24.92
2019-02-24T12:40:28.994Z,24.79
2019-02-24T12:41:29.083Z,24.86
2019-02-24T12:42:28.971Z,24.85
2019-02-24T12:43:28.966Z,24.88
2019-02-24T12:44:28.946Z,24.85
2019-02-24T12:45:28.936Z,24.92
2019-02-24T12:46:28.939Z,24.94
2019-02-24T12:47:29.022Z,24.82
2019-02-24T12:48:28.905Z,24.92
2019-02-24T12:49:28.894Z,24.89
2019-02-24T12:50:28.884Z,24.96
2019-02-24T12:51:28.869Z,24.86
2019-02-24T12:52:28.859Z,24.88